Time;durP1;ratioP1;P1;durP2;ratioP2;P2;SDS_P1;SDS_P2;PMS_P1;PMS_P2;Temp;Humidity;BMP_temperature;BMP_pressure;BME280_temperature;BME280_humidity;BME280_pressure;Samples;Min_cycle;Max_cycle;Signal;HPM_P1;HPM_P2
2022/11/06 00:01:31;;;;;;;9.40;4.10;;;10.10;99.90;;;;;;5104278;27;20100;-76
2022/11/06 00:03:57;;;;;;;7.53;3.80;;;10.00;99.90;;;;;;5110256;27;20478;-76
2022/11/06 00:09:11;;;;;;;9.52;3.45;;;9.90;99.90;;;;;;5122738;27;20450;-76
2022/11/06 00:11:38;;;;;;;9.98;3.97;;;9.90;99.90;;;;;;5117573;27;20512;-76
2022/11/06 00:14:04;;;;;;;6.95;3.75;;;9.90;99.90;;;;;;5118212;27;20042;-76
2022/11/06 00:16:30;;;;;;;10.98;4.47;;;9.90;99.90;;;;;;5124410;27;20043;-73
2022/11/06 00:18:58;;;;;;;10.55;4.72;;;9.90;99.90;;;;;;5128067;27;20062;-74
2022/11/06 00:21:26;;;;;;;9.77;4.55;;;10.10;99.90;;;;;;5129142;27;20055;-73
2022/11/06 00:23:53;;;;;;;12.40;4.63;;;9.80;99.90;;;;;;5125245;27;20046;-74
2022/11/06 00:26:22;;;;;;;9.30;4.38;;;9.80;99.90;;;;;;5149512;27;20409;-74
2022/11/06 00:28:48;;;;;;;10.07;5.55;;;9.70;99.90;;;;;;5122770;27;20054;-74
2022/11/06 00:31:23;;;;;;;8.93;4.97;;;9.70;99.90;;;;;;5141819;27;20114;-77
2022/11/06 00:33:50;;;;;;;9.25;6.07;;;9.70;99.90;;;;;;5127215;27;20071;-77
2022/11/06 00:36:22;;;;;;;10.18;6.15;;;9.70;99.90;;;;;;5123733;27;20589;-75
2022/11/06 00:38:51;;;;;;;9.77;5.05;;;9.70;99.90;;;;;;5141559;27;20050;-75
2022/11/06 00:41:17;;;;;;;6.80;5.18;;;9.70;99.90;;;;;;5122868;27;20038;-75
2022/11/06 00:43:48;;;;;;;10.35;5.65;;;10.80;99.90;;;;;;5109482;27;20404;-76
2022/11/06 00:46:14;;;;;;;8.82;6.18;;;9.50;99.90;;;;;;5125804;27;20068;-73
2022/11/06 00:48:41;;;;;;;8.43;5.03;;;10.40;99.90;;;;;;5107287;27;20082;-73
2022/11/06 00:51:08;;;;;;;9.20;5.65;;;10.20;99.90;;;;;;5120054;27;20031;-73
2022/11/06 00:53:34;;;;;;;7.57;5.57;;;9.40;99.90;;;;;;5148882;27;20087;-73
2022/11/06 00:56:15;;;;;;;12.98;6.43;;;9.50;99.90;;;;;;5110153;27;20050;-72
2022/11/06 00:58:41;;;;;;;9.82;6.30;;;9.40;99.90;;;;;;5125164;27;20066;-74
2022/11/06 01:01:16;;;;;;;11.60;6.15;;;9.40;99.90;;;;;;5124131;27;20085;-73
2022/11/06 01:03:43;;;;;;;10.93;5.40;;;9.40;99.90;;;;;;5126452;27;20408;-76
2022/11/06 01:06:15;;;;;;;11.88;6.28;;;9.40;99.90;;;;;;5102203;27;20118;-76
2022/11/06 01:08:41;;;;;;;10.20;5.68;;;9.40;99.90;;;;;;5126595;27;20054;-73
2022/11/06 01:11:08;;;;;;;13.70;7.05;;;9.40;99.90;;;;;;5150665;27;20037;-72
2022/11/06 01:13:34;;;;;;;15.82;6.80;;;9.40;99.90;;;;;;5149320;27;20078;-73
2022/11/06 01:16:00;;;;;;;11.63;6.65;;;10.80;99.90;;;;;;5115022;27;20359;-72
2022/11/06 01:18:25;;;;;;;14.18;6.47;;;9.40;99.90;;;;;;5117420;27;20091;-72
2022/11/06 01:20:51;;;;;;;15.75;7.18;;;10.40;99.90;;;;;;5149907;27;20484;-73
2022/11/06 01:23:17;;;;;;;12.45;6.68;;;9.60;99.90;;;;;;5126235;27;20122;-73
2022/11/06 01:25:42;;;;;;;13.40;7.15;;;9.30;99.90;;;;;;5112496;27;20045;-72
2022/11/06 01:28:08;;;;;;;8.13;6.18;;;9.40;99.90;;;;;;5142694;27;20036;-75
2022/11/06 01:30:37;;;;;;;11.90;6.70;;;9.60;99.90;;;;;;5132104;27;20413;-75
2022/11/06 01:33:02;;;;;;;13.88;7.82;;;9.40;99.90;;;;;;5143964;27;20050;-75
2022/11/06 01:35:28;;;;;;;12.07;7.35;;;9.40;99.90;;;;;;5129952;27;20054;-75
2022/11/06 01:37:54;;;;;;;13.50;7.22;;;9.30;99.90;;;;;;5114855;27;20050;-76
2022/11/06 01:40:19;;;;;;;11.80;6.95;;;9.30;99.90;;;;;;5143681;27;20066;-76
2022/11/06 01:42:45;;;;;;;12.57;7.47;;;9.80;99.90;;;;;;5147340;27;20542;-75
2022/11/06 01:45:24;;;;;;;12.20;7.50;;;9.30;99.90;;;;;;5108316;27;20070;-75
2022/11/06 01:47:50;;;;;;;18.20;7.32;;;9.30;99.90;;;;;;5132774;27;21076;-74
2022/11/06 01:50:16;;;;;;;14.18;7.50;;;9.10;99.90;;;;;;5112642;27;20038;-75
2022/11/06 01:52:43;;;;;;;13.77;8.57;;;9.30;99.90;;;;;;5147844;27;20042;-76
2022/11/06 01:55:18;;;;;;;17.27;7.47;;;10.30;99.90;;;;;;5110728;27;20393;-76
2022/11/06 01:57:45;;;;;;;15.18;7.55;;;9.20;99.90;;;;;;5125799;27;20410;-77
2022/11/06 02:00:12;;;;;;;12.10;7.57;;;9.20;99.90;;;;;;5130085;27;20117;-75
2022/11/06 02:02:38;;;;;;;17.42;8.27;;;9.30;99.90;;;;;;5152537;27;20513;-75
2022/11/06 02:05:04;;;;;;;11.05;7.43;;;9.20;99.90;;;;;;5133203;27;20050;-75
2022/11/06 02:07:31;;;;;;;13.60;7.90;;;9.30;99.90;;;;;;5146292;27;20130;-74
2022/11/06 02:09:57;;;;;;;10.43;7.35;;;9.20;99.90;;;;;;5149430;27;20031;-74
2022/11/06 02:12:50;;;;;;;12.90;7.88;;;9.20;99.90;;;;;;5125933;27;20037;-74
2022/11/06 02:15:46;;;;;;;13.73;6.97;;;9.30;99.90;;;;;;5128895;27;20049;-74
2022/11/06 02:18:41;;;;;;;10.18;7.05;;;9.20;99.90;;;;;;5125001;27;20075;-74
2022/11/06 02:21:44;;;;;;;11.93;7.95;;;9.20;99.90;;;;;;5141770;27;20066;-75
2022/11/06 02:24:18;;;;;;;12.10;7.78;;;9.20;99.90;;;;;;5144407;27;20501;-74
2022/11/06 02:27:14;;;;;;;12.48;7.35;;;9.20;99.90;;;;;;5128683;27;20421;-74
2022/11/06 02:30:06;;;;;;;8.07;7.07;;;9.20;99.90;;;;;;5109958;27;20482;-74
2022/11/06 02:32:39;;;;;;;10.65;7.07;;;9.20;99.90;;;;;;5149492;27;20565;-74
2022/11/06 02:35:18;;;;;;;10.20;7.90;;;9.20;99.90;;;;;;5128542;27;20133;-73
2022/11/06 02:37:46;;;;;;;12.90;8.60;;;9.20;99.90;;;;;;5132694;27;20073;-74
2022/11/06 02:40:13;;;;;;;12.02;7.90;;;9.20;99.90;;;;;;5148523;27;20034;-74
2022/11/06 02:42:44;;;;;;;11.48;7.40;;;9.10;99.90;;;;;;5127197;27;20061;-73
2022/11/06 02:45:13;;;;;;;15.57;8.35;;;9.20;99.90;;;;;;5129464;27;20050;-73
2022/11/06 02:47:41;;;;;;;13.18;7.85;;;9.10;99.90;;;;;;5142002;27;20151;-74
2022/11/06 02:50:12;;;;;;;11.90;7.93;;;9.20;99.90;;;;;;5126205;27;20036;-73
2022/11/06 02:52:45;;;;;;;12.82;7.50;;;9.20;99.90;;;;;;5127847;27;20126;-73
2022/11/06 02:55:15;;;;;;;12.25;7.72;;;9.20;99.90;;;;;;5110737;27;20493;-74
2022/11/06 02:57:47;;;;;;;14.27;7.65;;;10.20;99.90;;;;;;5127603;27;20058;-73
2022/11/06 03:00:14;;;;;;;15.95;7.97;;;9.20;99.90;;;;;;5109741;27;20587;-73
2022/11/06 03:03:09;;;;;;;10.02;7.30;;;9.20;99.90;;;;;;5128096;27;20046;-73
2022/11/06 03:05:37;;;;;;;14.88;8.18;;;9.40;99.90;;;;;;5109378;27;20087;-74
2022/11/06 03:08:08;;;;;;;11.57;7.30;;;9.80;99.90;;;;;;5149712;27;20042;-74
2022/11/06 03:10:49;;;;;;;13.68;7.53;;;9.20;99.90;;;;;;5125688;27;20070;-73
2022/11/06 03:13:26;;;;;;;8.93;6.85;;;10.00;99.90;;;;;;5149682;27;20397;-73
2022/11/06 03:16:06;;;;;;;12.57;7.32;;;10.30;99.90;;;;;;5115285;27;20039;-73
2022/11/06 03:18:47;;;;;;;8.35;7.22;;;9.20;99.90;;;;;;5113140;27;20125;-73
2022/11/06 03:21:25;;;;;;;10.43;7.18;;;9.20;99.90;;;;;;5145270;27;20045;-73
2022/11/06 03:23:57;;;;;;;9.05;7.13;;;9.20;99.90;;;;;;5121320;27;20493;-73
2022/11/06 03:26:35;;;;;;;10.10;7.00;;;9.20;99.90;;;;;;5146684;27;20113;-73
2022/11/06 03:29:07;;;;;;;9.95;7.35;;;9.10;99.90;;;;;;5124322;27;20050;-73
2022/11/06 03:31:39;;;;;;;10.90;6.88;;;9.10;99.90;;;;;;5107681;27;20486;-73
2022/11/06 03:34:09;;;;;;;8.30;7.20;;;9.10;99.90;;;;;;5142059;27;20046;-73
2022/11/06 03:36:43;;;;;;;12.02;7.05;;;9.10;99.90;;;;;;5142872;27;20367;-73
2022/11/06 03:39:14;;;;;;;11.65;7.00;;;9.80;99.90;;;;;;5142608;27;20039;-73
2022/11/06 03:41:44;;;;;;;9.10;6.95;;;9.10;99.90;;;;;;5147832;27;20039;-72
2022/11/06 03:44:14;;;;;;;10.25;7.20;;;9.20;99.90;;;;;;5123224;27;20039;-73
2022/11/06 03:46:47;;;;;;;10.98;7.07;;;9.20;99.90;;;;;;5124656;27;20034;-72
2022/11/06 03:49:20;;;;;;;16.25;7.72;;;9.20;99.90;;;;;;5107859;27;20043;-73
2022/11/06 03:51:56;;;;;;;14.73;8.27;;;10.10;99.90;;;;;;5127102;27;20034;-73
2022/11/06 03:55:17;;;;;;;15.55;7.38;;;9.20;99.90;;;;;;5104401;27;20039;-73
2022/11/06 03:57:56;;;;;;;14.07;7.50;;;9.20;99.90;;;;;;5011597;28;20051;-73
2022/11/06 04:00:21;;;;;;;10.80;6.85;;;9.20;99.90;;;;;;5116759;27;20053;-73
2022/11/06 04:02:52;;;;;;;10.23;7.20;;;9.70;99.90;;;;;;5111629;27;20469;-74
2022/11/06 04:05:23;;;;;;;11.30;7.65;;;9.20;99.90;;;;;;5149521;27;20560;-73
2022/11/06 04:16:14;;;;;;;11.00;8.07;;;9.30;99.90;;;;;;5145458;27;20054;-72
2022/11/06 04:18:40;;;;;;;15.18;7.40;;;9.20;99.90;;;;;;5146503;27;20569;-73
2022/11/06 04:21:23;;;;;;;12.40;7.25;;;9.30;99.90;;;;;;5109773;27;20042;-73
2022/11/06 04:27:01;;;;;;;11.07;6.72;;;9.30;99.90;;;;;;5123456;27;20439;-73
2022/11/06 04:29:51;;;;;;;11.43;7.22;;;9.30;99.90;;;;;;5138503;27;20462;-73
2022/11/06 04:32:26;;;;;;;12.05;7.50;;;9.30;99.90;;;;;;5111414;27;20540;-73
2022/11/06 04:35:14;;;;;;;;;;;9.30;99.90;;;;;;5124585;27;20476;-73
2022/11/06 04:37:46;;;;;;;12.27;6.65;;;9.30;99.90;;;;;;5071447;27;19925;-73
2022/11/06 04:40:31;;;;;;;12.90;7.05;;;9.30;99.90;;;;;;5121291;27;20051;-73
2022/11/06 04:43:23;;;;;;;16.98;7.55;;;9.30;99.90;;;;;;5108042;28;20111;-73
2022/11/06 04:45:52;;;;;;;12.10;6.13;;;9.30;99.90;;;;;;5118567;27;20403;-73
2022/11/06 04:48:20;;;;;;;13.75;7.35;;;9.30;99.90;;;;;;5120657;27;20035;-73
2022/11/06 04:50:50;;;;;;;11.63;7.68;;;9.30;99.90;;;;;;5117502;27;20035;-73
2022/11/06 04:53:17;;;;;;;11.32;6.13;;;9.30;99.90;;;;;;5123098;27;20398;-73
2022/11/06 04:55:50;;;;;;;7.38;5.93;;;9.30;99.90;;;;;;5124974;27;20381;-72
2022/11/06 04:58:15;;;;;;;9.55;6.03;;;9.40;99.90;;;;;;5108319;28;20160;-73
2022/11/06 05:00:45;;;;;;;17.38;7.18;;;9.30;99.90;;;;;;5123775;28;20086;-73
2022/11/06 05:03:11;;;;;;;16.85;6.43;;;9.30;99.90;;;;;;5120656;28;20075;-72
2022/11/06 05:05:37;;;;;;;13.85;6.32;;;9.30;99.90;;;;;;5123065;28;20062;-73
2022/11/06 05:08:03;;;;;;;9.38;6.05;;;9.30;99.90;;;;;;5113235;28;20190;-73
2022/11/06 05:10:28;;;;;;;12.32;6.05;;;9.30;99.90;;;;;;5121619;28;20160;-73
2022/11/06 05:12:54;;;;;;;10.85;5.45;;;9.40;99.90;;;;;;5118787;28;20047;-73
2022/11/06 05:15:19;;;;;;;12.23;6.05;;;9.40;99.90;;;;;;5109585;28;20047;-73
2022/11/06 05:17:45;;;;;;;11.52;5.13;;;9.40;99.90;;;;;;5123579;28;20130;-73
2022/11/06 05:20:11;;;;;;;10.95;5.95;;;9.40;99.90;;;;;;5127641;28;20054;-73
2022/11/06 05:22:59;;;;;;;11.20;5.85;;;9.30;99.90;;;;;;5126884;27;20047;-73
2022/11/06 05:25:27;;;;;;;5.68;5.07;;;9.30;99.90;;;;;;5126250;27;20473;-72
2022/11/06 05:27:53;;;;;;;11.00;6.15;;;9.30;99.90;;;;;;5110097;28;20054;-72
2022/11/06 05:30:19;;;;;;;10.82;5.85;;;9.40;99.90;;;;;;5103695;28;20039;-74
2022/11/06 05:32:44;;;;;;;9.88;6.50;;;9.30;99.90;;;;;;5108698;27;20166;-74
2022/11/06 05:35:11;;;;;;;7.95;5.57;;;9.30;99.90;;;;;;5129844;27;20055;-74
2022/11/06 05:37:37;;;;;;;11.45;5.55;;;9.30;99.90;;;;;;5107017;28;20510;-74
2022/11/06 05:40:02;;;;;;;11.48;5.47;;;10.40;99.90;;;;;;5131433;27;20511;-73
2022/11/06 05:42:28;;;;;;;9.10;5.55;;;9.30;99.90;;;;;;5129475;27;20535;-75
2022/11/06 05:44:54;;;;;;;8.20;5.00;;;9.40;99.90;;;;;;5146663;27;20540;-75
2022/11/06 05:47:19;;;;;;;11.32;5.53;;;10.00;99.90;;;;;;5129047;27;20041;-75
2022/11/06 05:49:45;;;;;;;9.65;5.18;;;9.80;99.90;;;;;;5143851;27;20489;-74
2022/11/06 05:52:11;;;;;;;12.35;5.38;;;9.30;99.90;;;;;;5127637;27;20066;-75
2022/11/06 05:54:36;;;;;;;7.32;4.95;;;9.30;99.90;;;;;;5142823;27;20047;-74
2022/11/06 05:57:02;;;;;;;9.70;5.05;;;9.30;99.90;;;;;;5129593;27;20149;-74
2022/11/06 05:59:28;;;;;;;9.75;4.50;;;9.30;99.90;;;;;;5148925;27;20058;-74
2022/11/06 06:01:53;;;;;;;6.95;5.25;;;9.30;99.90;;;;;;5133757;27;20484;-73
2022/11/06 06:04:19;;;;;;;8.68;4.60;;;9.90;99.90;;;;;;5116267;27;20375;-74
2022/11/06 06:06:45;;;;;;;13.13;5.32;;;9.30;99.90;;;;;;5149439;27;20035;-75
2022/11/06 06:09:11;;;;;;;8.43;4.85;;;9.30;99.90;;;;;;5128081;27;20056;-74
2022/11/06 06:11:36;;;;;;;10.43;4.72;;;9.40;99.90;;;;;;5121614;27;20459;-74
2022/11/06 06:14:02;;;;;;;11.35;4.95;;;9.30;99.90;;;;;;5130966;27;20045;-74
2022/11/06 06:16:28;;;;;;;11.02;4.82;;;9.30;99.90;;;;;;5114737;27;20077;-74
2022/11/06 06:18:53;;;;;;;8.23;4.57;;;9.30;99.90;;;;;;5111549;27;20526;-74
2022/11/06 06:21:19;;;;;;;10.63;5.30;;;9.30;99.90;;;;;;5113009;27;20498;-74
2022/11/06 06:23:45;;;;;;;8.48;4.55;;;9.30;99.90;;;;;;5131633;27;20031;-74
2022/11/06 06:26:10;;;;;;;8.27;4.53;;;9.20;99.90;;;;;;5146251;27;20039;-75
2022/11/06 06:28:36;;;;;;;11.80;4.93;;;9.30;99.90;;;;;;5144136;27;20042;-75
2022/11/06 06:31:06;;;;;;;14.02;5.13;;;9.20;99.90;;;;;;5146632;27;20370;-75
2022/11/06 06:33:33;;;;;;;15.57;4.95;;;9.20;99.90;;;;;;5145292;27;20575;-75
2022/11/06 06:36:02;;;;;;;7.68;4.15;;;9.20;99.90;;;;;;5125963;27;20115;-74
2022/11/06 06:38:28;;;;;;;9.77;4.40;;;9.90;99.90;;;;;;5131287;27;20049;-74
2022/11/06 06:40:54;;;;;;;11.55;4.25;;;9.20;99.90;;;;;;5143960;27;20043;-75
2022/11/06 06:43:19;;;;;;;12.40;4.22;;;9.20;99.90;;;;;;5131673;27;20061;-74
2022/11/06 06:45:45;;;;;;;8.95;3.83;;;9.20;99.90;;;;;;5143774;27;20049;-75
2022/11/06 06:48:10;;;;;;;11.70;4.80;;;9.20;99.90;;;;;;5141774;27;20035;-75
2022/11/06 06:50:37;;;;;;;11.73;4.15;;;9.20;99.90;;;;;;5131495;27;20050;-74
2022/11/06 06:53:02;;;;;;;8.77;4.20;;;10.20;99.90;;;;;;5106979;27;20358;-74
2022/11/06 06:55:28;;;;;;;8.63;3.60;;;9.10;99.90;;;;;;5096429;27;20057;-74
2022/11/06 06:57:58;;;;;;;11.10;4.10;;;9.20;99.90;;;;;;5111828;27;20039;-74
2022/11/06 07:00:25;;;;;;;17.20;4.07;;;9.20;99.90;;;;;;5121264;27;20046;-74
2022/11/06 07:02:51;;;;;;;4.25;3.42;;;9.30;99.90;;;;;;5130014;27;20046;-75
2022/11/06 07:05:17;;;;;;;11.05;4.07;;;9.30;99.90;;;;;;5123805;27;20417;-74
2022/11/06 07:07:43;;;;;;;9.73;3.40;;;9.30;99.90;;;;;;5146981;27;20046;-73
2022/11/06 07:10:08;;;;;;;11.93;3.72;;;9.30;99.90;;;;;;5148381;27;20516;-74
2022/11/06 07:12:34;;;;;;;6.80;3.22;;;9.30;99.90;;;;;;5130839;27;20511;-75
2022/11/06 07:15:00;;;;;;;9.93;2.90;;;9.30;99.90;;;;;;5146996;27;20049;-74
2022/11/06 07:17:26;;;;;;;7.15;3.22;;;9.70;99.90;;;;;;5125377;27;20129;-75
2022/11/06 07:19:52;;;;;;;12.18;3.60;;;10.60;99.90;;;;;;5127189;27;20034;-75
2022/11/06 07:22:18;;;;;;;12.55;3.65;;;9.40;99.90;;;;;;5127301;27;20154;-75
2022/11/06 07:24:43;;;;;;;9.50;3.47;;;9.30;99.90;;;;;;5130257;27;20045;-74
2022/11/06 07:27:09;;;;;;;7.20;2.95;;;9.30;99.90;;;;;;5139902;27;20031;-75
2022/11/06 07:29:35;;;;;;;10.68;3.47;;;9.30;99.90;;;;;;5128011;27;20038;-74
2022/11/06 07:32:00;;;;;;;7.50;3.80;;;9.30;99.90;;;;;;5141387;27;20126;-74
2022/11/06 07:34:26;;;;;;;11.95;3.50;;;9.40;99.90;;;;;;5127666;27;20129;-74
2022/11/06 07:36:52;;;;;;;7.65;3.80;;;9.40;99.90;;;;;;5143348;27;20091;-74
2022/11/06 07:39:17;;;;;;;11.55;3.50;;;9.40;99.90;;;;;;5145194;27;20039;-74
2022/11/06 07:41:43;;;;;;;8.40;3.38;;;9.40;99.90;;;;;;5107886;27;20582;-74
2022/11/06 07:44:09;;;;;;;11.02;3.95;;;9.70;99.90;;;;;;5122195;27;20031;-74
2022/11/06 07:46:35;;;;;;;9.60;3.95;;;9.40;99.90;;;;;;5139716;27;20438;-73
2022/11/06 07:49:00;;;;;;;17.40;7.22;;;9.30;99.90;;;;;;5112534;27;20078;-74
2022/11/06 07:51:26;;;;;;;8.65;3.70;;;9.30;99.90;;;;;;5146521;27;20491;-74
2022/11/06 07:53:52;;;;;;;8.50;4.70;;;9.30;99.90;;;;;;5121798;27;20035;-75
2022/11/06 07:56:17;;;;;;;9.35;4.28;;;9.50;99.90;;;;;;5115247;27;20045;-74
2022/11/06 07:58:43;;;;;;;8.50;3.20;;;9.40;99.90;;;;;;5125335;27;20039;-73
2022/11/06 08:01:14;;;;;;;7.32;2.95;;;9.40;99.90;;;;;;5132136;27;20070;-74
2022/11/06 08:03:40;;;;;;;7.75;2.90;;;9.40;99.90;;;;;;5144719;27;20045;-73
2022/11/06 08:06:06;;;;;;;10.02;4.30;;;9.40;99.90;;;;;;5113808;27;20051;-74
2022/11/06 08:08:31;;;;;;;11.98;3.55;;;9.40;99.90;;;;;;5125287;27;20074;-74
2022/11/06 08:11:05;;;;;;;13.57;3.50;;;9.40;99.90;;;;;;5132375;27;20035;-74
2022/11/06 08:13:32;;;;;;;7.07;2.25;;;9.50;99.90;;;;;;5146572;27;20489;-71
2022/11/06 08:16:05;;;;;;;5.07;2.63;;;9.60;99.90;;;;;;5144377;27;20038;-71
2022/11/06 08:18:31;;;;;;;8.60;4.28;;;10.60;99.90;;;;;;5150026;27;20039;-72
2022/11/06 08:20:57;;;;;;;10.38;3.60;;;9.50;99.90;;;;;;5144901;27;20038;-71
2022/11/06 08:23:22;;;;;;;11.95;2.90;;;9.50;99.90;;;;;;5146232;27;20049;-73
2022/11/06 08:25:48;;;;;;;8.50;2.80;;;9.50;99.90;;;;;;5123195;27;20552;-72
2022/11/06 08:28:13;;;;;;;10.45;3.08;;;11.00;99.90;;;;;;5110671;27;20167;-73
2022/11/06 08:30:39;;;;;;;8.32;2.88;;;9.50;99.90;;;;;;5111926;27;20094;-74
2022/11/06 08:33:07;;;;;;;7.65;2.90;;;9.50;99.90;;;;;;5129306;27;20389;-74
2022/11/06 08:35:35;;;;;;;9.38;3.35;;;9.50;99.90;;;;;;5143052;27;20179;-81
2022/11/06 08:38:01;;;;;;;9.50;3.58;;;9.60;99.90;;;;;;5131472;27;20125;-83
2022/11/06 08:40:27;;;;;;;9.45;2.25;;;9.60;99.90;;;;;;5113567;27;20114;-81
2022/11/06 08:42:57;;;;;;;7.10;2.13;;;9.60;99.90;;;;;;5112285;27;20171;-78
2022/11/06 08:45:22;;;;;;;6.82;2.58;;;10.60;99.90;;;;;;5147442;27;20043;-77
2022/11/06 08:47:48;;;;;;;6.00;2.35;;;10.50;99.90;;;;;;5107622;27;20045;-75
2022/11/06 08:50:13;;;;;;;10.15;2.95;;;9.70;99.90;;;;;;5148412;27;20079;-73
2022/11/06 08:52:39;;;;;;;11.52;3.30;;;9.70;99.90;;;;;;5129008;27;20035;-74
2022/11/06 08:55:04;;;;;;;17.25;3.80;;;9.70;99.90;;;;;;5107888;27;20035;-74
2022/11/06 08:57:30;;;;;;;9.27;3.80;;;9.70;99.90;;;;;;5130563;27;20027;-76
2022/11/06 08:59:56;;;;;;;9.35;3.88;;;10.90;99.90;;;;;;5100477;28;20474;-75
2022/11/06 09:02:21;;;;;;;15.70;2.50;;;10.40;99.90;;;;;;5115457;27;20039;-74
2022/11/06 09:04:47;;;;;;;7.75;2.60;;;9.80;99.90;;;;;;5128437;27;20076;-74
2022/11/06 09:07:13;;;;;;;6.00;2.25;;;9.80;99.90;;;;;;5105671;27;20046;-74
2022/11/06 09:09:38;;;;;;;8.15;2.15;;;9.90;99.90;;;;;;5129680;27;20046;-74
2022/11/06 09:12:04;;;;;;;10.35;2.75;;;9.90;99.90;;;;;;5125461;27;20477;-74
2022/11/06 09:14:33;;;;;;;10.00;2.63;;;9.90;99.90;;;;;;5127675;27;20034;-75
2022/11/06 09:16:58;;;;;;;12.63;2.13;;;10.00;99.90;;;;;;5129239;27;20505;-74
2022/11/06 09:19:24;;;;;;;9.63;2.10;;;10.00;99.90;;;;;;5129940;27;20043;-74
2022/11/06 09:21:50;;;;;;;9.93;3.28;;;11.20;99.90;;;;;;5145635;27;20440;-74
2022/11/06 09:24:15;;;;;;;7.43;2.42;;;10.00;99.90;;;;;;5103488;27;20039;-74
2022/11/06 09:26:41;;;;;;;8.68;2.22;;;10.10;99.90;;;;;;5124983;27;20038;-74
2022/11/06 09:29:06;;;;;;;14.73;2.45;;;10.10;99.90;;;;;;5146608;27;20235;-74
2022/11/06 09:31:32;;;;;;;7.78;1.98;;;10.50;99.90;;;;;;5113236;27;20467;-73
2022/11/06 09:33:58;;;;;;;8.55;2.40;;;10.10;99.90;;;;;;5129875;27;20130;-74
2022/11/06 09:36:23;;;;;;;17.50;2.92;;;10.10;99.90;;;;;;5131717;27;20046;-74
2022/11/06 09:38:49;;;;;;;5.18;2.42;;;10.20;99.90;;;;;;5112967;27;20035;-75
2022/11/06 09:41:33;;;;;;;8.13;2.30;;;10.20;99.90;;;;;;5129455;27;20031;-74
2022/11/06 09:44:27;;;;;;;9.18;2.60;;;10.20;99.90;;;;;;5126410;27;20039;-74
2022/11/06 09:46:55;;;;;;;8.48;2.03;;;10.20;99.90;;;;;;5148595;27;20043;-73
2022/11/06 09:49:32;;;;;;;12.90;2.22;;;10.20;99.90;;;;;;5129292;27;20065;-75
2022/11/06 09:52:10;;;;;;;11.45;2.67;;;10.20;99.90;;;;;;5149607;27;20438;-76
2022/11/06 09:54:39;;;;;;;5.25;1.73;;;10.20;99.90;;;;;;5134121;27;20655;-74
2022/11/06 09:57:19;;;;;;;7.78;2.10;;;10.30;99.90;;;;;;5124544;27;20031;-75
2022/11/06 09:59:46;;;;;;;9.27;2.22;;;10.30;99.90;;;;;;5126865;27;20143;-74
2022/11/06 10:02:23;;;;;;;8.60;2.15;;;10.30;99.90;;;;;;5113254;27;20189;-74
2022/11/06 10:04:56;;;;;;;8.93;2.25;;;10.40;99.90;;;;;;5131544;27;20497;-74
2022/11/06 10:07:28;;;;;;;11.80;2.00;;;10.30;99.90;;;;;;5113028;27;20043;-74
2022/11/06 10:09:54;;;;;;;7.10;1.95;;;10.40;99.90;;;;;;5108713;27;20043;-74
2022/11/06 10:12:31;;;;;;;5.82;1.42;;;10.40;99.90;;;;;;5125314;27;20440;-74
2022/11/06 10:15:03;;;;;;;6.97;1.75;;;11.60;99.90;;;;;;5129567;27;20108;-74
2022/11/06 10:17:37;;;;;;;5.25;1.70;;;10.50;99.90;;;;;;5127585;27;20170;-73
2022/11/06 10:20:17;;;;;;;9.95;1.88;;;10.50;99.90;;;;;;5129433;27;20045;-74
2022/11/06 10:23:11;;;;;;;9.93;2.05;;;10.60;99.90;;;;;;5134184;27;20064;-73
2022/11/06 10:25:59;;;;;;;8.80;2.40;;;10.60;99.90;;;;;;5082698;27;20501;-75
2022/11/06 10:28:59;;;;;;;7.72;1.92;;;10.60;99.90;;;;;;5109424;27;20045;-75
2022/11/06 10:31:47;;;;;;;14.20;2.72;;;10.70;99.90;;;;;;5131376;27;20163;-74
2022/11/06 10:34:17;;;;;;;17.20;2.58;;;10.70;99.90;;;;;;5129328;27;20182;-74
2022/11/06 10:36:58;;;;;;;6.60;2.15;;;10.70;99.90;;;;;;5145191;27;20383;-74
2022/11/06 10:39:31;;;;;;;5.20;1.80;;;10.70;99.90;;;;;;5129524;27;20512;-74
2022/11/06 10:42:12;;;;;;;6.47;1.75;;;10.70;99.90;;;;;;5142535;27;20070;-75
2022/11/06 10:44:44;;;;;;;8.68;1.65;;;10.70;99.90;;;;;;5110099;27;20121;-74
2022/11/06 10:47:17;;;;;;;7.32;1.73;;;10.80;99.90;;;;;;5132431;27;20051;-74
2022/11/06 10:49:54;;;;;;;6.68;1.48;;;10.80;99.90;;;;;;5104951;27;20122;-74
2022/11/06 10:52:35;;;;;;;4.72;1.73;;;10.80;99.90;;;;;;5125794;27;20405;-74
2022/11/06 10:55:38;;;;;;;8.32;1.75;;;10.90;99.90;;;;;;5125261;27;20118;-75
2022/11/06 10:58:05;;;;;;;4.82;1.35;;;10.90;99.90;;;;;;5150812;27;20038;-75
2022/11/06 11:00:32;;;;;;;5.80;1.73;;;10.90;99.90;;;;;;5130958;27;20118;-75
2022/11/06 11:03:05;;;;;;;6.80;1.85;;;10.90;99.90;;;;;;5150284;27;20066;-74
2022/11/06 11:05:40;;;;;;;10.60;2.55;;;11.00;99.90;;;;;;5145215;27;20034;-74
2022/11/06 11:08:25;;;;;;;6.80;1.55;;;11.00;99.90;;;;;;5125054;27;20063;-74
2022/11/06 11:10:51;;;;;;;5.43;1.70;;;11.00;99.90;;;;;;5128916;27;20040;-73
2022/11/06 11:13:20;;;;;;;4.65;1.90;;;11.00;99.90;;;;;;5126537;27;20113;-74
2022/11/06 11:15:48;;;;;;;4.78;1.88;;;11.00;99.90;;;;;;5110387;27;20138;-74
2022/11/06 11:18:21;;;;;;;8.82;2.08;;;11.00;99.90;;;;;;5129766;27;20034;-74
2022/11/06 11:21:02;;;;;;;5.63;1.80;;;10.90;99.90;;;;;;5130843;27;20100;-74
2022/11/06 11:23:28;;;;;;;6.80;2.33;;;11.10;99.90;;;;;;5133848;27;20077;-74
2022/11/06 11:25:56;;;;;;;3.58;1.40;;;10.90;99.90;;;;;;5126316;27;20467;-74
2022/11/06 11:28:34;;;;;;;6.63;2.20;;;10.90;99.90;;;;;;5126687;27;20113;-74
2022/11/06 11:31:13;;;;;;;10.15;1.90;;;10.90;99.90;;;;;;5147675;27;20049;-74
2022/11/06 11:33:41;;;;;;;7.88;2.53;;;11.00;99.90;;;;;;5130658;27;20059;-74
2022/11/06 11:36:08;;;;;;;6.72;1.73;;;10.80;99.90;;;;;;5129908;27;20056;-74
2022/11/06 11:38:37;;;;;;;5.10;1.65;;;10.90;99.90;;;;;;5131791;27;20038;-74
2022/11/06 11:41:18;;;;;;;9.73;1.65;;;11.90;99.90;;;;;;5132384;27;20085;-75
2022/11/06 11:44:09;;;;;;;7.90;1.92;;;10.80;99.90;;;;;;5126719;27;20177;-74
2022/11/06 11:46:53;;;;;;;6.53;1.63;;;10.70;99.90;;;;;;5123254;27;20402;-74
2022/11/06 11:49:26;;;;;;;6.40;2.08;;;10.80;99.90;;;;;;5112795;27;20033;-73
2022/11/06 11:51:52;;;;;;;11.23;2.08;;;10.80;99.90;;;;;;5131657;27;20054;-73
2022/11/06 11:54:22;;;;;;;7.03;1.70;;;10.80;99.90;;;;;;5108203;27;20212;-74
2022/11/06 11:57:00;;;;;;;7.22;2.17;;;10.80;99.90;;;;;;5111166;27;20482;-74
2022/11/06 11:59:29;;;;;;;12.35;2.90;;;10.90;99.90;;;;;;5125853;27;20027;-74
2022/11/06 12:02:01;;;;;;;7.90;2.13;;;10.90;99.90;;;;;;5126052;27;20065;-74
2022/11/06 12:04:37;;;;;;;7.13;1.85;;;10.90;99.90;;;;;;5127016;27;20047;-74
2022/11/06 12:07:06;;;;;;;8.20;1.70;;;10.90;99.90;;;;;;5146429;27;20494;-73
2022/11/06 12:09:39;;;;;;;5.60;1.52;;;11.00;99.90;;;;;;5124392;27;20039;-74
2022/11/06 12:12:05;;;;;;;6.00;2.08;;;11.00;99.90;;;;;;5146880;27;20050;-74
2022/11/06 12:14:36;;;;;;;4.85;1.70;;;11.00;99.90;;;;;;5126942;27;20042;-74
2022/11/06 12:17:20;;;;;;;6.55;2.17;;;11.00;99.90;;;;;;5140668;27;20039;-74
2022/11/06 12:19:52;;;;;;;4.28;1.65;;;11.10;99.90;;;;;;5146315;27;20386;-73
2022/11/06 12:22:27;;;;;;;8.32;1.75;;;11.10;99.90;;;;;;5112812;27;20078;-74
2022/11/06 12:24:57;;;;;;;6.90;1.65;;;11.10;99.90;;;;;;5129772;27;20401;-74
2022/11/06 12:27:37;;;;;;;7.30;1.50;;;11.20;99.90;;;;;;5142071;27;20035;-74
2022/11/06 12:30:11;;;;;;;4.47;1.00;;;11.20;99.90;;;;;;5128551;27;20035;-74
2022/11/06 12:32:54;;;;;;;7.63;1.67;;;11.20;99.90;;;;;;5124442;27;20505;-74
2022/11/06 12:35:24;;;;;;;7.85;1.52;;;11.30;99.90;;;;;;5141764;27;20191;-73
2022/11/06 12:37:54;;;;;;;8.73;1.60;;;11.30;99.90;;;;;;5108617;27;20050;-73
2022/11/06 12:40:22;;;;;;;3.83;1.60;;;11.30;99.90;;;;;;5128992;27;20043;-74
2022/11/06 12:43:21;;;;;;;6.13;1.90;;;11.30;99.90;;;;;;5103343;27;20418;-74
2022/11/06 12:45:58;;;;;;;6.28;1.70;;;11.30;99.90;;;;;;5124802;27;20039;-74
2022/11/06 12:48:46;;;;;;;8.27;1.83;;;11.40;99.90;;;;;;5137945;27;20065;-74
2022/11/06 12:51:42;;;;;;;7.30;2.08;;;11.40;99.90;;;;;;5123075;27;21126;-74
2022/11/06 12:54:32;;;;;;;6.00;1.85;;;11.40;99.90;;;;;;5121360;27;20532;-73
2022/11/06 12:57:20;;;;;;;6.88;3.67;;;11.40;99.90;;;;;;5127588;27;20055;-73
2022/11/06 13:00:04;;;;;;;11.10;4.05;;;11.40;99.90;;;;;;5112185;27;20041;-74
2022/11/06 13:02:45;;;;;;;6.85;3.08;;;11.40;99.90;;;;;;5107624;28;20098;-73
2022/11/06 13:05:32;;;;;;;6.63;2.15;;;11.40;99.90;;;;;;5107616;27;20047;-72
2022/11/06 13:08:27;;;;;;;5.18;1.85;;;11.40;99.90;;;;;;5142113;27;20047;-74
2022/11/06 13:11:14;;;;;;;3.65;1.13;;;11.40;99.90;;;;;;5105600;27;20079;-73
2022/11/06 13:13:52;;;;;;;3.30;1.20;;;11.40;99.90;;;;;;5130310;27;20042;-73
2022/11/06 13:16:48;;;;;;;5.47;1.20;;;11.30;99.90;;;;;;5109489;27;20240;-73
2022/11/06 13:19:28;;;;;;;7.15;1.30;;;11.30;99.90;;;;;;5141375;27;22270;-73
2022/11/06 13:22:10;;;;;;;3.92;1.40;;;11.40;99.90;;;;;;5123113;27;20054;-73
2022/11/06 13:24:46;;;;;;;3.67;1.30;;;11.40;99.90;;;;;;5142154;27;20133;-73